Time;durP1;ratioP1;P1;durP2;ratioP2;P2;SDS_P1;SDS_P2;PMS_P1;PMS_P2;Temp;Humidity;BMP_temperature;BMP_pressure;BME280_temperature;BME280_humidity;BME280_pressure;Samples;Min_cycle;Max_cycle;Signal;HPM_P1;HPM_P2
2023/04/09 00:02:13;;;;;;;;;25.50;24.50;;;;;;;;5075491;27;45398;-57
2023/04/09 00:04:39;;;;;;;;;27.25;27.25;;;;;;;;5075058;27;46212;-58
2023/04/09 00:07:07;;;;;;;;;28.75;27.00;;;;;;;;5073546;27;45490;-58
2023/04/09 00:09:32;;;;;;;;;32.25;28.00;;;;;;;;5075307;27;45838;-58
2023/04/09 00:11:58;;;;;;;;;30.50;29.00;;;;;;;;5075049;27;45572;-58
2023/04/09 00:14:25;;;;;;;;;28.00;26.25;;;;;;;;5074902;27;45571;-58
2023/04/09 00:16:53;;;;;;;;;37.50;31.25;;;;;;;;5074758;27;45430;-58
2023/04/09 00:19:18;;;;;;;;;31.50;27.00;;;;;;;;5075120;27;45433;-58
2023/04/09 00:21:44;;;;;;;;;30.50;27.50;;;;;;;;5074935;27;45511;-59
2023/04/09 00:24:10;;;;;;;;;30.50;29.00;;;;;;;;5073621;27;46136;-58
2023/04/09 00:26:37;;;;;;;;;28.25;27.50;;;;;;;;5073297;27;45534;-58
2023/04/09 00:29:02;;;;;;;;;23.25;23.25;;;;;;;;5074865;27;45480;-58
2023/04/09 00:31:28;;;;;;;;;30.00;28.00;;;;;;;;5074744;27;45531;-58
2023/04/09 00:33:55;;;;;;;;;31.50;29.75;;;;;;;;5074577;27;46045;-58
2023/04/09 00:36:22;;;;;;;;;29.00;27.25;;;;;;;;5073136;27;45380;-58
2023/04/09 00:38:49;;;;;;;;;30.50;27.75;;;;;;;;5074746;27;45523;-58
2023/04/09 00:41:14;;;;;;;;;26.25;26.25;;;;;;;;5074598;27;45476;-58
2023/04/09 00:43:39;;;;;;;;;31.00;28.75;;;;;;;;5073705;27;45862;-58
2023/04/09 00:46:05;;;;;;;;;37.25;32.00;;;;;;;;5074511;27;45543;-58
2023/04/09 00:48:30;;;;;;;;;29.75;26.75;;;;;;;;5074566;27;45480;-58
2023/04/09 00:50:55;;;;;;;;;34.50;28.50;;;;;;;;5074794;27;45565;-58
2023/04/09 00:53:20;;;;;;;;;29.75;28.25;;;;;;;;5074268;27;45990;-58
2023/04/09 00:55:46;;;;;;;;;31.75;31.25;;;;;;;;5060498;28;45481;-58
2023/04/09 00:58:11;;;;;;;;;33.00;29.75;;;;;;;;5073980;27;45452;-58
2023/04/09 01:00:36;;;;;;;;;26.75;25.75;;;;;;;;5074543;27;45695;-58
2023/04/09 01:03:04;;;;;;;;;33.25;29.50;;;;;;;;5072646;27;45831;-58
2023/04/09 01:05:38;;;;;;;;;31.75;30.00;;;;;;;;5073740;27;45492;-58
2023/04/09 01:08:21;;;;;;;;;34.25;31.50;;;;;;;;5074223;27;45454;-59
2023/04/09 01:10:53;;;;;;;;;30.00;30.00;;;;;;;;5072886;27;45553;-58
2023/04/09 01:13:24;;;;;;;;;33.50;31.00;;;;;;;;5074210;27;46107;-57
2023/04/09 01:15:56;;;;;;;;;37.75;30.25;;;;;;;;5073944;27;45484;-58
2023/04/09 01:18:25;;;;;;;;;29.25;28.00;;;;;;;;5073839;27;45562;-58
2023/04/09 01:20:56;;;;;;;;;32.00;29.50;;;;;;;;5073944;27;45476;-58
2023/04/09 01:23:28;;;;;;;;;34.75;32.50;;;;;;;;5073917;27;46358;-58
2023/04/09 01:26:10;;;;;;;;;27.75;26.75;;;;;;;;5072498;28;45478;-58
2023/04/09 01:28:41;;;;;;;;;28.75;28.50;;;;;;;;5073988;27;45482;-58
2023/04/09 01:31:10;;;;;;;;;39.00;33.75;;;;;;;;5073799;27;45409;-58
2023/04/09 01:33:36;;;;;;;;;31.50;28.00;;;;;;;;5073733;27;46051;-58
2023/04/09 01:36:03;;;;;;;;;33.75;30.25;;;;;;;;5073524;27;45593;-58
2023/04/09 01:38:28;;;;;;;;;39.75;34.25;;;;;;;;5072499;27;45498;-58
2023/04/09 01:40:55;;;;;;;;;36.50;31.50;;;;;;;;5073767;28;45469;-58
2023/04/09 01:43:20;;;;;;;;;35.75;31.50;;;;;;;;5073683;27;46136;-58
2023/04/09 01:45:46;;;;;;;;;30.50;30.50;;;;;;;;5073710;27;45516;-58
2023/04/09 01:48:12;;;;;;;;;39.50;33.25;;;;;;;;5073912;28;45510;-58
2023/04/09 01:50:38;;;;;;;;;32.50;31.00;;;;;;;;5073848;27;45493;-58
2023/04/09 01:53:03;;;;;;;;;27.75;26.00;;;;;;;;5073148;27;45524;-58
2023/04/09 01:55:29;;;;;;;;;33.25;30.75;;;;;;;;5072251;27;45533;-59
2023/04/09 01:57:54;;;;;;;;;31.25;28.75;;;;;;;;5073483;27;45616;-57
2023/04/09 02:00:19;;;;;;;;;28.50;27.75;;;;;;;;5073259;27;45402;-58
2023/04/09 02:02:52;;;;;;;;;36.25;31.50;;;;;;;;5071546;27;47050;-57
2023/04/09 02:05:18;;;;;;;;;36.50;31.25;;;;;;;;5073276;27;45455;-58
2023/04/09 02:07:45;;;;;;;;;34.25;32.75;;;;;;;;5073635;27;45442;-58
2023/04/09 02:10:12;;;;;;;;;31.00;30.50;;;;;;;;5071852;27;45511;-58
2023/04/09 02:12:37;;;;;;;;;31.00;28.75;;;;;;;;5072923;27;45531;-58
2023/04/09 02:15:04;;;;;;;;;37.50;28.75;;;;;;;;5073458;28;45406;-58
2023/04/09 02:17:30;;;;;;;;;32.75;32.25;;;;;;;;5073284;28;45453;-58
2023/04/09 02:19:55;;;;;;;;;34.00;30.25;;;;;;;;5073647;27;45434;-57
2023/04/09 02:22:20;;;;;;;;;31.50;29.50;;;;;;;;5073296;27;45491;-58
2023/04/09 02:24:45;;;;;;;;;32.00;30.00;;;;;;;;5073087;27;45517;-58
2023/04/09 02:27:11;;;;;;;;;33.50;32.75;;;;;;;;5073223;27;45749;-58
2023/04/09 02:29:37;;;;;;;;;33.00;32.00;;;;;;;;5073268;27;45594;-58
2023/04/09 02:32:02;;;;;;;;;28.00;27.25;;;;;;;;5070924;27;48258;-57
2023/04/09 02:34:28;;;;;;;;;36.25;33.50;;;;;;;;5072565;27;45517;-57
2023/04/09 02:36:53;;;;;;;;;31.50;29.00;;;;;;;;5073016;27;45492;-58
2023/04/09 02:39:18;;;;;;;;;30.50;28.75;;;;;;;;5073210;27;45472;-58
2023/04/09 02:41:43;;;;;;;;;31.50;28.25;;;;;;;;5072902;27;45643;-58
2023/04/09 02:44:09;;;;;;;;;35.75;34.00;;;;;;;;5073087;27;45401;-57
2023/04/09 02:46:34;;;;;;;;;32.00;30.50;;;;;;;;5072858;28;45582;-57
2023/04/09 02:48:59;;;;;;;;;31.50;28.75;;;;;;;;5073213;27;45644;-58
2023/04/09 02:51:25;;;;;;;;;34.25;31.00;;;;;;;;5072665;28;45947;-58
2023/04/09 02:53:50;;;;;;;;;29.75;28.50;;;;;;;;5073053;27;45439;-58
2023/04/09 02:56:15;;;;;;;;;33.00;31.00;;;;;;;;5072806;28;45497;-58
2023/04/09 02:58:41;;;;;;;;;34.50;31.25;;;;;;;;5072905;27;45512;-58
2023/04/09 03:01:06;;;;;;;;;30.50;28.75;;;;;;;;5072849;27;45602;-58
2023/04/09 03:03:31;;;;;;;;;35.50;29.25;;;;;;;;5072604;27;45559;-58
2023/04/09 03:05:56;;;;;;;;;37.00;31.75;;;;;;;;5073499;27;45598;-57
2023/04/09 03:08:21;;;;;;;;;35.50;31.75;;;;;;;;5076227;27;45632;-58
2023/04/09 03:10:47;;;;;;;;;33.00;29.75;;;;;;;;5076379;27;46344;-56
2023/04/09 03:13:12;;;;;;;;;31.75;29.00;;;;;;;;5075785;27;45752;-58
2023/04/09 03:15:37;;;;;;;;;32.00;31.25;;;;;;;;5076232;27;45436;-58
2023/04/09 03:18:02;;;;;;;;;35.25;31.00;;;;;;;;5075792;27;45602;-58
2023/04/09 03:20:28;;;;;;;;;34.00;30.75;;;;;;;;5075792;27;45653;-58
2023/04/09 03:22:53;;;;;;;;;36.25;34.75;;;;;;;;5076125;27;45690;-57
2023/04/09 03:25:19;;;;;;;;;36.50;34.00;;;;;;;;5074745;27;45483;-58
2023/04/09 03:27:45;;;;;;;;;29.75;29.75;;;;;;;;5075867;27;45940;-58
2023/04/09 03:30:10;;;;;;;;;34.25;30.75;;;;;;;;5075509;27;45941;-58
2023/04/09 03:32:36;;;;;;;;;35.75;33.25;;;;;;;;5075414;27;45490;-58
2023/04/09 03:35:01;;;;;;;;;35.75;28.50;;;;;;;;5075509;27;45550;-58
2023/04/09 03:37:26;;;;;;;;;35.50;32.50;;;;;;;;5075926;27;45598;-58
2023/04/09 03:39:51;;;;;;;;;34.50;32.00;;;;;;;;5075659;27;45529;-58
2023/04/09 03:42:16;;;;;;;;;38.25;34.75;;;;;;;;5075673;27;45589;-58
2023/04/09 03:44:42;;;;;;;;;37.75;32.25;;;;;;;;5075684;27;45488;-58
2023/04/09 03:47:07;;;;;;;;;40.50;33.75;;;;;;;;5074420;27;45498;-58
2023/04/09 03:49:33;;;;;;;;;40.25;36.25;;;;;;;;5075442;27;45434;-57
2023/04/09 03:51:59;;;;;;;;;40.00;33.00;;;;;;;;5074988;27;45508;-57
2023/04/09 03:54:27;;;;;;;;;32.25;31.50;;;;;;;;5075499;27;45379;-58
2023/04/09 03:56:53;;;;;;;;;35.75;34.00;;;;;;;;5074115;27;45462;-57
2023/04/09 03:59:20;;;;;;;;;34.00;30.75;;;;;;;;5075238;27;45999;-57
2023/04/09 04:01:45;;;;;;;;;35.50;33.00;;;;;;;;5075450;27;45505;-58
2023/04/09 04:04:10;;;;;;;;;40.75;33.25;;;;;;;;5075315;27;45614;-57
2023/04/09 04:06:35;;;;;;;;;34.75;32.50;;;;;;;;5073939;28;45626;-58
2023/04/09 04:09:01;;;;;;;;;33.25;32.00;;;;;;;;5075073;27;45404;-58
2023/04/09 04:11:26;;;;;;;;;35.00;33.50;;;;;;;;5075095;27;45609;-58
2023/04/09 04:13:51;;;;;;;;;40.50;34.25;;;;;;;;5075381;27;46062;-58
2023/04/09 04:16:16;;;;;;;;;37.50;33.00;;;;;;;;5075315;27;45599;-57
2023/04/09 04:18:41;;;;;;;;;35.50;32.75;;;;;;;;5074255;28;46304;-57
2023/04/09 04:21:11;;;;;;;;;30.50;30.00;;;;;;;;5075282;27;45631;-58
2023/04/09 04:23:36;;;;;;;;;41.00;34.50;;;;;;;;5073932;27;45577;-58
2023/04/09 04:26:08;;;;;;;;;43.00;35.00;;;;;;;;5075039;27;45533;-58
2023/04/09 04:28:33;;;;;;;;;32.00;30.00;;;;;;;;5062422;27;46288;-58
2023/04/09 04:30:59;;;;;;;;;31.75;30.50;;;;;;;;5072972;27;45470;-58
2023/04/09 04:33:24;;;;;;;;;28.00;28.00;;;;;;;;5075004;27;45567;-58
2023/04/09 04:35:49;;;;;;;;;34.50;33.00;;;;;;;;5074503;27;45592;-58
2023/04/09 04:38:14;;;;;;;;;33.75;30.75;;;;;;;;5074650;27;46150;-58
2023/04/09 04:40:40;;;;;;;;;38.75;32.75;;;;;;;;5074810;27;45463;-58
2023/04/09 04:43:05;;;;;;;;;35.50;34.00;;;;;;;;5074685;27;45938;-58
2023/04/09 04:45:30;;;;;;;;;39.50;33.50;;;;;;;;5074996;27;45493;-58
2023/04/09 04:47:55;;;;;;;;;38.00;33.50;;;;;;;;5074363;27;46423;-58
2023/04/09 04:50:21;;;;;;;;;38.50;32.75;;;;;;;;5074537;27;45458;-58
2023/04/09 04:52:46;;;;;;;;;46.50;36.00;;;;;;;;5074566;27;45493;-58
2023/04/09 04:55:11;;;;;;;;;36.75;31.50;;;;;;;;5073236;27;45709;-58
2023/04/09 04:57:36;;;;;;;;;35.00;32.25;;;;;;;;5074684;28;45526;-58
2023/04/09 05:00:01;;;;;;;;;35.00;32.75;;;;;;;;5074566;28;45953;-58
2023/04/09 05:02:26;;;;;;;;;33.50;30.75;;;;;;;;5074462;27;45442;-58
2023/04/09 05:04:52;;;;;;;;;37.25;31.75;;;;;;;;5074311;27;46127;-58
2023/04/09 05:07:17;;;;;;;;;36.50;33.75;;;;;;;;5074040;27;45967;-58
2023/04/09 05:09:43;;;;;;;;;40.25;33.75;;;;;;;;5074325;28;45404;-58
2023/04/09 05:12:08;;;;;;;;;30.00;29.50;;;;;;;;5074150;27;45488;-58
2023/04/09 05:14:33;;;;;;;;;36.50;34.00;;;;;;;;5074349;27;45425;-58
2023/04/09 05:16:58;;;;;;;;;40.75;35.50;;;;;;;;5073289;27;46540;-58
2023/04/09 05:19:24;;;;;;;;;44.00;36.75;;;;;;;;5073933;27;45473;-58
2023/04/09 05:21:49;;;;;;;;;42.00;35.75;;;;;;;;5073788;27;45462;-58
2023/04/09 05:24:14;;;;;;;;;40.25;32.50;;;;;;;;5073726;27;45448;-58
2023/04/09 05:26:39;;;;;;;;;41.25;33.50;;;;;;;;5072442;27;48030;-58
2023/04/09 05:29:05;;;;;;;;;31.75;29.75;;;;;;;;5071255;27;45656;-58
2023/04/09 05:31:30;;;;;;;;;37.25;31.75;;;;;;;;5073163;27;45449;-58
2023/04/09 05:33:55;;;;;;;;;39.75;35.50;;;;;;;;5074027;28;45470;-58
2023/04/09 05:36:21;;;;;;;;;38.50;35.00;;;;;;;;5073470;27;46204;-58
2023/04/09 05:38:46;;;;;;;;;38.00;33.50;;;;;;;;5072898;27;45371;-58
2023/04/09 05:41:12;;;;;;;;;40.25;36.50;;;;;;;;5073632;27;45423;-57
2023/04/09 05:43:37;;;;;;;;;41.00;35.00;;;;;;;;5073771;27;45464;-58
2023/04/09 05:46:02;;;;;;;;;35.00;33.50;;;;;;;;5073761;27;45492;-58
2023/04/09 05:48:27;;;;;;;;;39.25;36.00;;;;;;;;5073496;27;45508;-58
2023/04/09 05:50:53;;;;;;;;;37.50;32.25;;;;;;;;5072680;28;45449;-58
2023/04/09 05:53:18;;;;;;;;;37.50;32.75;;;;;;;;5073721;27;45679;-58
2023/04/09 05:55:44;;;;;;;;;36.50;34.25;;;;;;;;5073487;27;45953;-58
2023/04/09 05:58:09;;;;;;;;;42.00;35.00;;;;;;;;5072078;27;45726;-58
2023/04/09 06:00:35;;;;;;;;;39.00;34.00;;;;;;;;5073673;27;45426;-58
2023/04/09 06:03:00;;;;;;;;;44.50;37.75;;;;;;;;5073646;28;45648;-58
2023/04/09 06:05:25;;;;;;;;;36.50;33.50;;;;;;;;5073448;27;46172;-58
2023/04/09 06:07:50;;;;;;;;;37.75;34.75;;;;;;;;5073421;28;45387;-58
2023/04/09 06:10:15;;;;;;;;;38.25;33.50;;;;;;;;5073529;27;45607;-58
2023/04/09 06:12:41;;;;;;;;;41.75;32.50;;;;;;;;5073516;27;45581;-58
2023/04/09 06:15:06;;;;;;;;;41.75;35.50;;;;;;;;5073099;27;45515;-58
2023/04/09 06:17:31;;;;;;;;;41.00;36.00;;;;;;;;5073389;27;45521;-58
2023/04/09 06:19:56;;;;;;;;;37.50;35.50;;;;;;;;5073586;27;45397;-58
2023/04/09 06:22:21;;;;;;;;;42.75;37.25;;;;;;;;5073233;27;45477;-58
2023/04/09 06:24:47;;;;;;;;;38.50;36.00;;;;;;;;5073069;28;45976;-58
2023/04/09 06:27:12;;;;;;;;;43.75;36.25;;;;;;;;5073346;27;45452;-58
2023/04/09 06:29:37;;;;;;;;;41.50;35.25;;;;;;;;5073480;28;45366;-57
2023/04/09 06:32:02;;;;;;;;;43.00;38.25;;;;;;;;5073066;27;45655;-60
2023/04/09 06:34:28;;;;;;;;;43.75;36.25;;;;;;;;5071451;27;47133;-57
2023/04/09 06:36:53;;;;;;;;;41.25;36.25;;;;;;;;5073386;27;45596;-58
2023/04/09 06:39:18;;;;;;;;;41.75;36.00;;;;;;;;5073606;27;45655;-58
2023/04/09 06:41:43;;;;;;;;;47.25;38.50;;;;;;;;5075042;27;45499;-58
2023/04/09 06:44:08;;;;;;;;;41.00;36.00;;;;;;;;5076701;27;45547;-57
2023/04/09 06:46:34;;;;;;;;;38.75;35.75;;;;;;;;5075194;27;45457;-57
2023/04/09 06:48:59;;;;;;;;;41.00;35.00;;;;;;;;5076652;27;45614;-58
2023/04/09 06:51:24;;;;;;;;;42.00;37.50;;;;;;;;5076386;27;45691;-58
2023/04/09 06:53:49;;;;;;;;;43.00;37.50;;;;;;;;5074848;27;45705;-58
2023/04/09 06:56:15;;;;;;;;;39.00;36.00;;;;;;;;5076364;27;45513;-59
2023/04/09 06:58:40;;;;;;;;;42.25;35.75;;;;;;;;5075889;27;45426;-59
2023/04/09 07:01:05;;;;;;;;;40.25;36.00;;;;;;;;5075016;27;45759;-59
2023/04/09 07:03:30;;;;;;;;;42.25;35.50;;;;;;;;5076272;27;45888;-59
2023/04/09 07:05:56;;;;;;;;;37.50;34.25;;;;;;;;5076324;27;45547;-59
2023/04/09 07:08:22;;;;;;;;;42.75;36.25;;;;;;;;5076350;27;45464;-59
2023/04/09 07:10:47;;;;;;;;;43.75;36.50;;;;;;;;5076325;27;45429;-58
2023/04/09 07:13:12;;;;;;;;;42.75;35.25;;;;;;;;5076049;27;45559;-59
2023/04/09 07:15:38;;;;;;;;;52.75;41.25;;;;;;;;5075974;27;45460;-59
2023/04/09 07:18:03;;;;;;;;;46.00;39.50;;;;;;;;5076264;27;45450;-58
2023/04/09 07:20:28;;;;;;;;;49.00;40.50;;;;;;;;5076009;27;45391;-59
2023/04/09 07:22:53;;;;;;;;;46.00;34.25;;;;;;;;5075932;27;45453;-58
2023/04/09 07:25:18;;;;;;;;;39.75;37.00;;;;;;;;5075929;27;45462;-58
2023/04/09 07:27:44;;;;;;;;;41.75;32.75;;;;;;;;5076145;27;45615;-59
2023/04/09 07:30:09;;;;;;;;;39.00;34.00;;;;;;;;5075599;27;45613;-58
2023/04/09 07:32:35;;;;;;;;;42.25;35.75;;;;;;;;5075586;27;45440;-59
2023/04/09 07:35:01;;;;;;;;;39.75;35.50;;;;;;;;5075364;27;45500;-59
2023/04/09 07:37:27;;;;;;;;;37.50;33.50;;;;;;;;5075994;27;45524;-59
2023/04/09 07:39:52;;;;;;;;;39.25;35.00;;;;;;;;5075635;27;45483;-59
2023/04/09 07:42:17;;;;;;;;;42.25;37.25;;;;;;;;5073928;27;46314;-59
2023/04/09 07:44:42;;;;;;;;;40.00;36.75;;;;;;;;5075364;27;45358;-59
2023/04/09 07:47:08;;;;;;;;;40.50;35.75;;;;;;;;5075676;27;45698;-59
2023/04/09 07:49:34;;;;;;;;;41.25;35.50;;;;;;;;5074192;27;45637;-59
2023/04/09 07:52:00;;;;;;;;;39.75;33.50;;;;;;;;5074966;27;45518;-59
2023/04/09 07:54:25;;;;;;;;;43.00;37.25;;;;;;;;5074693;27;45532;-59
2023/04/09 07:56:50;;;;;;;;;38.00;34.50;;;;;;;;5075357;27;45572;-59
2023/04/09 07:59:16;;;;;;;;;36.50;34.00;;;;;;;;5075657;27;45595;-59
2023/04/09 08:01:41;;;;;;;;;40.00;32.25;;;;;;;;5075251;27;46091;-59
2023/04/09 08:04:06;;;;;;;;;40.50;35.50;;;;;;;;5075531;27;45587;-59
2023/04/09 08:06:32;;;;;;;;;42.75;35.75;;;;;;;;5075469;27;45465;-63
2023/04/09 08:08:57;;;;;;;;;47.00;36.50;;;;;;;;5073949;27;45448;-63
2023/04/09 08:11:24;;;;;;;;;40.50;35.25;;;;;;;;5074936;27;45577;-58
2023/04/09 08:13:50;;;;;;;;;47.25;37.00;;;;;;;;5073081;27;45491;-58
2023/04/09 08:16:16;;;;;;;;;43.00;34.50;;;;;;;;5075183;27;45717;-63
2023/04/09 08:18:41;;;;;;;;;42.75;36.25;;;;;;;;5070211;27;45480;-63
2023/04/09 08:21:06;;;;;;;;;41.00;35.75;;;;;;;;5070804;27;45589;-63
2023/04/09 08:23:31;;;;;;;;;42.75;38.00;;;;;;;;5074495;27;45485;-61
2023/04/09 08:25:56;;;;;;;;;42.50;34.75;;;;;;;;5073131;27;45514;-60
2023/04/09 08:28:22;;;;;;;;;41.25;35.00;;;;;;;;5073312;28;45516;-60
2023/04/09 08:30:47;;;;;;;;;42.50;35.50;;;;;;;;5073815;27;46440;-60
2023/04/09 08:33:12;;;;;;;;;45.75;35.50;;;;;;;;5073422;27;45540;-63
2023/04/09 08:35:39;;;;;;;;;37.75;35.00;;;;;;;;5073730;27;45755;-60
2023/04/09 08:38:05;;;;;;;;;40.75;35.00;;;;;;;;5073554;28;45445;-58
2023/04/09 08:40:33;;;;;;;;;43.75;35.75;;;;;;;;5071684;27;45915;-59
2023/04/09 08:42:59;;;;;;;;;39.75;34.00;;;;;;;;5070338;28;45488;-60
2023/04/09 08:45:24;;;;;;;;;35.50;34.00;;;;;;;;5073461;28;45531;-58
2023/04/09 08:47:50;;;;;;;;;39.75;35.75;;;;;;;;5074734;27;45446;-59
2023/04/09 08:50:15;;;;;;;;;40.75;35.50;;;;;;;;5074053;27;45676;-58
2023/04/09 08:52:41;;;;;;;;;40.75;35.00;;;;;;;;5074415;27;45921;-58
2023/04/09 08:55:07;;;;;;;;;32.25;31.00;;;;;;;;5074773;27;45444;-57
2023/04/09 08:57:38;;;;;;;;;39.00;34.25;;;;;;;;5074253;27;45624;-57
2023/04/09 09:00:04;;;;;;;;;30.50;29.50;;;;;;;;5072960;27;46436;-57
2023/04/09 09:02:30;;;;;;;;;40.50;33.75;;;;;;;;5074222;27;45532;-57
2023/04/09 09:04:59;;;;;;;;;35.25;32.75;;;;;;;;5074084;27;45506;-57
2023/04/09 09:07:26;;;;;;;;;35.00;30.75;;;;;;;;5074180;27;45523;-55
2023/04/09 09:09:52;;;;;;;;;38.00;32.00;;;;;;;;5073980;27;45488;-55
2023/04/09 09:12:33;;;;;;;;;32.25;29.75;;;;;;;;5073468;27;45553;-60
2023/04/09 09:14:58;;;;;;;;;35.25;31.25;;;;;;;;5074024;28;45455;-58
2023/04/09 09:17:24;;;;;;;;;35.00;33.75;;;;;;;;5073842;27;45441;-58
2023/04/09 09:19:49;;;;;;;;;31.25;31.00;;;;;;;;5074065;27;45459;-60
2023/04/09 09:22:15;;;;;;;;;36.00;33.00;;;;;;;;5073235;27;45463;-62
2023/04/09 09:24:50;;;;;;;;;33.00;31.00;;;;;;;;5074439;28;45608;-59
2023/04/09 09:27:39;;;;;;;;;29.75;25.50;;;;;;;;5073956;28;45521;-56
2023/04/09 09:30:05;;;;;;;;;32.50;31.25;;;;;;;;5073613;27;46187;-62
2023/04/09 09:32:33;;;;;;;;;31.00;29.25;;;;;;;;5073695;27;45496;-61
2023/04/09 09:35:02;;;;;;;;;32.00;29.75;;;;;;;;5073680;27;45512;-63
2023/04/09 09:37:28;;;;;;;;;31.25;30.75;;;;;;;;5073660;27;45552;-61
2023/04/09 09:39:54;;;;;;;;;29.67;28.33;;;;;;;;5073325;27;46103;-61
2023/04/09 09:42:19;;;;;;;;;29.50;29.25;;;;;;;;5073553;28;45611;-62
2023/04/09 09:44:45;;;;;;;;;38.67;28.33;;;;;;;;5073541;27;45568;-61
2023/04/09 09:47:12;;;;;;;;;27.67;24.00;;;;;;;;5073421;27;45547;-60
2023/04/09 09:49:37;;;;;;;;;25.67;24.33;;;;;;;;5073145;27;45942;-59
2023/04/09 09:52:05;;;;;;;;;18.33;14.67;;;;;;;;5073402;27;45489;-62
2023/04/09 09:54:41;;;;;;;;;26.33;24.33;;;;;;;;5073422;27;45430;-64
2023/04/09 09:57:08;;;;;;;;;27.00;24.33;;;;;;;;5073338;27;45432;-65
2023/04/09 09:59:36;;;;;;;;;17.67;16.67;;;;;;;;5073541;28;46280;-63
2023/04/09 10:02:06;;;;;;;;;20.33;20.33;;;;;;;;5073496;27;45473;-62
2023/04/09 10:04:34;;;;;;;;;28.67;26.67;;;;;;;;5073395;27;45498;-62
2023/04/09 10:07:01;;;;;;;;;24.00;20.67;;;;;;;;5073102;27;45578;-66
2023/04/09 10:09:26;;;;;;;;;19.00;17.67;;;;;;;;5073401;28;46137;-62
2023/04/09 10:11:53;;;;;;;;;23.67;21.00;;;;;;;;5073034;27;45513;-63
2023/04/09 10:14:18;;;;;;;;;18.67;16.67;;;;;;;;5073007;27;45521;-54
2023/04/09 10:16:43;;;;;;;;;27.00;21.67;;;;;;;;5074881;27;45471;-53
2023/04/09 10:19:12;;;;;;;;;20.67;19.67;;;;;;;;5076675;27;45547;-59
2023/04/09 10:21:44;;;;;;;;;20.00;19.33;;;;;;;;5076454;27;45549;-59
2023/04/09 10:24:09;;;;;;;;;24.00;21.67;;;;;;;;5076666;27;45401;-59
2023/04/09 10:26:39;;;;;;;;;23.00;20.00;;;;;;;;5076517;27;45548;-58
2023/04/09 10:29:10;;;;;;;;;26.33;26.00;;;;;;;;5076789;27;46034;-58
2023/04/09 10:31:46;;;;;;;;;25.33;21.67;;;;;;;;5076500;27;45546;-59
2023/04/09 10:34:13;;;;;;;;;28.67;26.33;;;;;;;;5076817;27;45571;-58
2023/04/09 10:36:42;;;;;;;;;25.67;24.67;;;;;;;;5076520;27;45516;-59
2023/04/09 10:39:12;;;;;;;;;25.67;22.00;;;;;;;;5076662;27;46539;-58
2023/04/09 10:41:37;;;;;;;;;24.67;22.67;;;;;;;;5074896;27;45407;-59
2023/04/09 10:44:06;;;;;;;;;23.33;21.67;;;;;;;;5076636;27;46015;-59
2023/04/09 10:46:35;;;;;;;;;25.00;23.00;;;;;;;;5075241;27;45743;-59
2023/04/09 10:49:26;;;;;;;;;30.67;25.00;;;;;;;;5076598;27;45758;-59
2023/04/09 10:52:02;;;;;;;;;23.67;23.67;;;;;;;;5073049;27;45440;-58
2023/04/09 10:54:33;;;;;;;;;24.00;21.67;;;;;;;;5076401;27;45426;-60
2023/04/09 10:57:07;;;;;;;;;22.67;20.33;;;;;;;;5076109;27;45480;-61
2023/04/09 10:59:33;;;;;;;;;23.33;20.00;;;;;;;;5076313;27;46036;-60
2023/04/09 11:01:58;;;;;;;;;21.67;20.67;;;;;;;;5075947;27;45395;-60
2023/04/09 11:04:30;;;;;;;;;21.00;21.00;;;;;;;;5076423;27;45481;-60
2023/04/09 11:06:56;;;;;;;;;17.67;17.67;;;;;;;;5076338;27;45557;-60
2023/04/09 11:09:21;;;;;;;;;16.00;16.00;;;;;;;;5076206;27;45814;-60
2023/04/09 11:11:52;;;;;;;;;17.00;17.00;;;;;;;;5075746;27;45566;-60
2023/04/09 11:14:18;;;;;;;;;17.67;17.67;;;;;;;;5076614;27;45489;-60
2023/04/09 11:16:46;;;;;;;;;19.67;16.67;;;;;;;;5076023;27;45589;-60
2023/04/09 11:19:11;;;;;;;;;20.00;17.67;;;;;;;;5076043;28;45505;-60
2023/04/09 11:21:36;;;;;;;;;17.67;15.00;;;;;;;;5076004;27;45497;-60
2023/04/09 11:24:02;;;;;;;;;16.67;16.33;;;;;;;;5074633;27;45465;-60
2023/04/09 11:26:36;;;;;;;;;17.33;17.33;;;;;;;;5076074;27;45445;-60
2023/04/09 11:29:07;;;;;;;;;16.33;16.33;;;;;;;;5074356;27;47276;-60
2023/04/09 11:31:32;;;;;;;;;19.67;17.00;;;;;;;;5075641;27;45542;-60
2023/04/09 11:33:57;;;;;;;;;11.67;10.00;;;;;;;;5075937;27;45514;-60
2023/04/09 11:36:23;;;;;;;;;11.00;11.00;;;;;;;;5075821;27;46776;-60
2023/04/09 11:38:50;;;;;;;;;21.00;16.00;;;;;;;;5075340;27;45491;-60
2023/04/09 11:41:15;;;;;;;;;17.33;16.67;;;;;;;;5075755;27;45607;-60
2023/04/09 11:43:40;;;;;;;;;17.33;16.33;;;;;;;;5075902;27;45569;-60
2023/04/09 11:46:06;;;;;;;;;16.00;16.00;;;;;;;;5075957;28;45560;-60
2023/04/09 11:48:32;;;;;;;;;17.33;17.00;;;;;;;;5075210;27;46180;-60
2023/04/09 11:50:57;;;;;;;;;19.00;17.33;;;;;;;;5075084;27;45475;-60
2023/04/09 11:53:23;;;;;;;;;17.00;17.00;;;;;;;;5075252;28;45390;-60
2023/04/09 11:55:50;;;;;;;;;17.67;16.67;;;;;;;;5075179;27;45549;-60
2023/04/09 11:58:16;;;;;;;;;16.33;14.33;;;;;;;;5074932;27;45561;-59
2023/04/09 12:00:41;;;;;;;;;17.00;15.33;;;;;;;;5075275;27;45451;-60
2023/04/09 12:03:08;;;;;;;;;12.33;12.00;;;;;;;;5074930;27;45544;-60
2023/04/09 12:05:34;;;;;;;;;14.67;13.67;;;;;;;;5075307;27;45680;-60
2023/04/09 12:08:05;;;;;;;;;15.33;14.67;;;;;;;;5075237;27;45468;-60
2023/04/09 12:10:31;;;;;;;;;17.33;16.33;;;;;;;;5075193;27;45527;-60
2023/04/09 12:13:04;;;;;;;;;17.33;16.33;;;;;;;;5075131;27;45531;-58
2023/04/09 12:15:31;;;;;;;;;17.33;15.67;;;;;;;;5075092;27;45801;-58
2023/04/09 12:17:56;;;;;;;;;16.67;15.67;;;;;;;;5074526;27;46034;-59
2023/04/09 12:20:29;;;;;;;;;15.00;15.00;;;;;;;;5074633;27;45500;-58
2023/04/09 12:22:55;;;;;;;;;18.67;18.67;;;;;;;;5074933;27;45495;-59
2023/04/09 12:25:20;;;;;;;;;16.00;13.00;;;;;;;;5075122;27;45529;-59
2023/04/09 12:27:45;;;;;;;;;55.75;45.75;;;;;;;;5074744;27;45629;-59
2023/04/09 12:30:11;;;;;;;;;81.25;69.50;;;;;;;;5075083;27;45429;-59
2023/04/09 12:32:37;;;;;;;;;25.67;24.00;;;;;;;;5074757;27;45524;-59
2023/04/09 12:35:03;;;;;;;;;34.33;31.33;;;;;;;;5073230;28;45447;-59
2023/04/09 12:37:28;;;;;;;;;19.00;17.33;;;;;;;;5072909;27;45476;-59
2023/04/09 12:39:53;;;;;;;;;17.33;15.67;;;;;;;;5074075;27;45560;-59
2023/04/09 12:42:18;;;;;;;;;13.33;13.33;;;;;;;;5074700;27;45429;-59
2023/04/09 12:44:43;;;;;;;;;12.33;12.33;;;;;;;;5073285;27;45471;-59
2023/04/09 12:47:09;;;;;;;;;17.33;13.67;;;;;;;;5061792;27;45414;-59
2023/04/09 12:49:34;;;;;;;;;14.33;14.33;;;;;;;;5073199;27;45478;-59
2023/04/09 12:51:59;;;;;;;;;11.67;11.33;;;;;;;;5074285;27;45565;-60
2023/04/09 12:54:25;;;;;;;;;14.67;13.67;;;;;;;;5072855;28;45427;-59
2023/04/09 12:56:50;;;;;;;;;14.00;13.00;;;;;;;;5073988;27;46079;-59
2023/04/09 12:59:15;;;;;;;;;15.33;14.67;;;;;;;;5074623;27;45533;-59
2023/04/09 13:01:41;;;;;;;;;18.67;15.67;;;;;;;;5074588;27;45414;-59
2023/04/09 13:04:06;;;;;;;;;18.67;16.00;;;;;;;;5074503;27;45513;-59
2023/04/09 13:06:31;;;;;;;;;10.00;10.00;;;;;;;;5074348;27;46065;-59
2023/04/09 13:08:56;;;;;;;;;12.67;11.67;;;;;;;;5074317;27;45421;-61
2023/04/09 13:11:21;;;;;;;;;14.00;13.33;;;;;;;;5074579;27;45684;-59
2023/04/09 13:13:47;;;;;;;;;13.67;13.00;;;;;;;;5072320;27;45650;-59
2023/04/09 13:16:12;;;;;;;;;13.00;11.67;;;;;;;;5073019;27;46201;-59
2023/04/09 13:18:37;;;;;;;;;11.00;11.00;;;;;;;;5074078;27;45525;-60
2023/04/09 13:21:02;;;;;;;;;16.33;14.33;;;;;;;;5074237;28;45559;-60
2023/04/09 13:23:27;;;;;;;;;13.00;13.00;;;;;;;;5074153;27;45485;-59
2023/04/09 13:25:53;;;;;;;;;14.33;12.67;;;;;;;;5073572;28;46023;-60
2023/04/09 13:28:18;;;;;;;;;13.00;13.00;;;;;;;;5073927;27;45408;-59
2023/04/09 13:30:43;;;;;;;;;13.33;11.00;;;;;;;;5073456;27;45512;-60
2023/04/09 13:33:08;;;;;;;;;16.67;13.67;;;;;;;;5073800;27;45621;-58
2023/04/09 13:35:33;;;;;;;;;11.33;10.67;;;;;;;;5073409;27;46565;-62
2023/04/09 13:37:59;;;;;;;;;13.33;13.33;;;;;;;;5073779;27;45432;-59
2023/04/09 13:40:25;;;;;;;;;13.67;12.00;;;;;;;;5074089;27;45555;-61
2023/04/09 13:42:50;;;;;;;;;12.67;11.00;;;;;;;;5071966;27;45665;-57
2023/04/09 13:45:15;;;;;;;;;12.33;12.33;;;;;;;;5073362;27;45545;-57
2023/04/09 13:47:41;;;;;;;;;12.00;10.67;;;;;;;;5073810;27;45537;-58
2023/04/09 13:50:09;;;;;;;;;11.00;11.00;;;;;;;;5073155;27;45511;-59
2023/04/09 13:52:34;;;;;;;;;13.00;12.00;;;;;;;;5072618;27;45685;-57
2023/04/09 13:54:59;;;;;;;;;15.67;14.33;;;;;;;;5073178;27;45482;-59
2023/04/09 13:57:24;;;;;;;;;13.33;13.00;;;;;;;;5074031;27;45416;-61
2023/04/09 13:59:50;;;;;;;;;14.67;13.67;;;;;;;;5074157;28;45649;-64
2023/04/09 14:02:16;;;;;;;;;12.67;12.00;;;;;;;;5073785;27;45577;-65
2023/04/09 14:04:41;;;;;;;;;16.67;14.00;;;;;;;;5072057;28;46171;-63
2023/04/09 14:07:07;;;;;;;;;15.33;13.67;;;;;;;;5073463;27;45793;-64
2023/04/09 14:09:32;;;;;;;;;13.33;13.00;;;;;;;;5074033;27;45479;-62
2023/04/09 14:11:57;;;;;;;;;15.67;13.33;;;;;;;;5073296;28;45452;-64